X  Blizu METAR Podaci o vazduhoplovstvu     LGRX Patras Araxos Agamemnon Airport
Temperatura
25°C Temperatura
20°C Tačka Rose
74% Vlaga



Vetar
5 KM/S
3 MPS
1 M/S
3 Čvorovi



Tiho
S
Trenutna situacija

Delimično oblačno Delimično oblačno
Vazdušni pritisak 1013.92 (hPa) - 29.94 (inHg)
Vidljivost 6.2 (Milje) - 10 (km)
Aerodrom
Aerodromski kod. LGRX

Lokacija: Patras Araxos Agamemnon Airport
Udaljenost: 108 (km)

Metar:
LGRX 271950Z VRB03KT 9999 FEW020 25/20 Q1014

Vreme: 27-06-2022 22:50 EEST